Time,TemperatureF,DewpointF,PressureIn,WindDirection,WindDirectionDegrees,WindSpeedMPH,WindSpeedGustMPH,Humidity,HourlyPrecipIn,Conditions,Clouds,dailyrainin,SoftwareType,DateUTC
2013-01-13 00:03:00,43.0,-99.9,30.13,SE,140,6.0,8.0,-999,-99.99,,,-99.99,,2013-01-13 05:03:00,
2013-01-13 00:12:00,43.0,-99.9,30.13,SE,132,5.0,7.0,-999,-99.99,,,-99.99,,2013-01-13 05:12:00,
2013-01-13 00:23:00,43.0,-99.9,30.13,SE,128,7.0,9.0,-999,-99.99,,,-99.99,,2013-01-13 05:23:00,
2013-01-13 00:33:00,43.0,-99.9,30.13,SE,139,6.0,8.0,-999,-99.99,,,-99.99,,2013-01-13 05:33:00,
2013-01-13 00:42:00,43.0,-99.9,30.13,SE,131,4.0,5.0,-999,-99.99,,,-99.99,,2013-01-13 05:42:00,
2013-01-13 00:53:00,43.0,-99.9,30.14,SE,130,4.0,6.0,-999,-99.99,,,-99.99,,2013-01-13 05:53:00,
2013-01-13 01:03:00,43.0,-99.9,30.13,SSE,159,5.0,6.0,-999,-99.99,,,-99.99,,2013-01-13 06:03:00,
2013-01-13 01:12:00,43.0,-99.9,30.13,SE,146,3.0,4.0,-999,-99.99,,,-99.99,,2013-01-13 06:12:00,
2013-01-13 01:22:00,43.0,-99.9,30.13,SSE,165,4.0,5.0,-999,-99.99,,,-99.99,,2013-01-13 06:22:00,
2013-01-13 01:33:00,43.0,-99.9,30.13,SE,129,6.0,6.0,-999,-99.99,,,-99.99,,2013-01-13 06:33:00,
2013-01-13 01:43:00,43.0,-99.9,30.13,SE,126,5.0,6.0,-999,-99.99,,,-99.99,,2013-01-13 06:43:00,
2013-01-13 01:53:00,43.0,-99.9,30.14,SE,135,4.0,4.0,-999,-99.99,,,-99.99,,2013-01-13 06:53:00,
2013-01-13 02:02:00,43.0,-99.9,30.13,ESE,119,4.0,6.0,-999,-99.99,,,-99.99,,2013-01-13 07:02:00,
2013-01-13 02:12:00,43.0,-99.9,30.14,SE,141,5.0,8.0,-999,-99.99,,,-99.99,,2013-01-13 07:12:00,
2013-01-13 02:22:00,43.0,-99.9,30.14,SE,145,7.0,10.0,-999,-99.99,,,-99.99,,2013-01-13 07:22:00,
2013-01-13 02:33:00,42.0,-99.9,30.14,SE,134,7.0,8.0,-999,-99.99,,,-99.99,,2013-01-13 07:33:00,
2013-01-13 02:42:00,43.0,-99.9,30.13,SE,125,8.0,11.0,-999,-99.99,,,-99.99,,2013-01-13 07:42:00,
2013-01-13 02:53:00,43.0,-99.9,30.14,ESE,109,4.0,7.0,-999,-99.99,,,-99.99,,2013-01-13 07:53:00,
2013-01-13 03:02:00,42.0,-99.9,30.14,SE,136,8.0,9.0,-999,-99.99,,,-99.99,,2013-01-13 08:02:00,
2013-01-13 03:12:00,42.0,-99.9,30.14,SE,137,7.0,8.0,-999,-99.99,,,-99.99,,2013-01-13 08:12:00,
2013-01-13 03:22:00,42.0,-99.9,30.14,SE,142,7.0,9.0,-999,-99.99,,,-99.99,,2013-01-13 08:22:00,
2013-01-13 03:32:00,42.0,-99.9,30.14,SE,139,3.0,5.0,-999,-99.99,,,-99.99,,2013-01-13 08:32:00,
2013-01-13 03:42:00,42.0,-99.9,30.14,SSE,154,4.0,5.0,-999,-99.99,,,-99.99,,2013-01-13 08:42:00,
2013-01-13 03:53:00,42.0,-99.9,30.14,SE,144,5.0,6.0,-999,-99.99,,,-99.99,,2013-01-13 08:53:00,
2013-01-13 04:02:00,42.0,-99.9,30.14,South,181,4.0,5.0,-999,-99.99,,,-99.99,,2013-01-13 09:02:00,
2013-01-13 04:12:00,42.0,-99.9,30.14,South,190,4.0,5.0,-999,-99.99,,,-99.99,,2013-01-13 09:12:00,
2013-01-13 04:22:00,42.0,-99.9,30.14,South,188,5.0,6.0,-999,-99.99,,,-99.99,,2013-01-13 09:22:00,
2013-01-13 04:32:00,42.0,-99.9,30.13,SSE,154,5.0,7.0,-999,-99.99,,,-99.99,,2013-01-13 09:32:00,
2013-01-13 04:43:00,42.0,-99.9,30.12,SSE,155,5.0,6.0,-999,-99.99,,,-99.99,,2013-01-13 09:43:00,
2013-01-13 04:53:00,42.0,-99.9,30.12,SE,135,5.0,5.0,-999,-99.99,,,-99.99,,2013-01-13 09:53:00,
2013-01-13 05:03:00,42.0,-99.9,30.11,SE,141,6.0,7.0,-999,-99.99,,,-99.99,,2013-01-13 10:03:00,
2013-01-13 05:12:00,42.0,-99.9,30.11,SE,141,5.0,7.0,-999,-99.99,,,-99.99,,2013-01-13 10:12:00,
2013-01-13 05:22:00,42.0,-99.9,30.12,SE,138,6.0,9.0,-999,-99.99,,,-99.99,,2013-01-13 10:22:00,
2013-01-13 05:33:00,42.0,-99.9,30.11,SE,131,6.0,8.0,-999,-99.99,,,-99.99,,2013-01-13 10:33:00,
2013-01-13 05:42:00,42.0,-99.9,30.11,SE,144,9.0,11.0,-999,-99.99,,,-99.99,,2013-01-13 10:42:00,
2013-01-13 05:53:00,42.0,-99.9,30.11,SE,140,8.0,10.0,-999,-99.99,,,-99.99,,2013-01-13 10:53:00,
2013-01-13 06:02:00,42.0,-99.9,30.11,SE,128,8.0,9.0,-999,-99.99,,,-99.99,,2013-01-13 11:02:00,
2013-01-13 06:12:00,42.0,-99.9,30.10,SE,128,10.0,11.0,-999,-99.99,,,-99.99,,2013-01-13 11:12:00,
2013-01-13 06:22:00,42.0,-99.9,30.11,SE,127,7.0,9.0,-999,-99.99,,,-99.99,,2013-01-13 11:22:00,
2013-01-13 06:33:00,42.0,-99.9,30.11,SE,141,4.0,5.0,-999,-99.99,,,-99.99,,2013-01-13 11:33:00,
2013-01-13 06:43:00,42.0,-99.9,30.11,SSE,166,7.0,9.0,-999,-99.99,,,-99.99,,2013-01-13 11:43:00,
2013-01-13 06:53:00,42.0,-99.9,30.11,SSE,152,7.0,9.0,-999,-99.99,,,-99.99,,2013-01-13 11:53:00,
2013-01-13 07:03:00,42.0,-99.9,30.11,SSE,159,6.0,9.0,-999,-99.99,,,-99.99,,2013-01-13 12:03:00,
2013-01-13 07:12:00,42.0,-99.9,30.11,SE,136,7.0,9.0,-999,-99.99,,,-99.99,,2013-01-13 12:12:00,
2013-01-13 07:22:00,42.0,-99.9,30.13,South,171,4.0,7.0,-999,-99.99,,,-99.99,,2013-01-13 12:22:00,
2013-01-13 07:33:00,42.0,-99.9,30.13,SSE,147,6.0,8.0,-999,-99.99,,,-99.99,,2013-01-13 12:33:00,
2013-01-13 07:42:00,42.0,-99.9,30.12,SE,129,8.0,9.0,-999,-99.99,,,-99.99,,2013-01-13 12:42:00,
2013-01-13 07:53:00,42.0,-99.9,30.12,SE,131,6.0,9.0,-999,-99.99,,,-99.99,,2013-01-13 12:53:00,
2013-01-13 08:03:00,42.0,-99.9,30.12,SE,143,9.0,13.0,-999,-99.99,,,-99.99,,2013-01-13 13:03:00,
2013-01-13 08:12:00,42.0,-99.9,30.12,SE,140,9.0,12.0,-999,-99.99,,,-99.99,,2013-01-13 13:12:00,
2013-01-13 08:22:00,42.0,-99.9,30.12,SSE,152,9.0,11.0,-999,-99.99,,,-99.99,,2013-01-13 13:22:00,
2013-01-13 08:33:00,43.0,-99.9,30.13,SSE,152,8.0,10.0,-999,-99.99,,,-99.99,,2013-01-13 13:33:00,
2013-01-13 08:43:00,43.0,-99.9,30.13,SSE,162,10.0,12.0,-999,-99.99,,,-99.99,,2013-01-13 13:43:00,
2013-01-13 08:53:00,43.0,-99.9,30.13,SSE,155,9.0,10.0,-999,-99.99,,,-99.99,,2013-01-13 13:53:00,
2013-01-13 09:03:00,43.0,-99.9,30.13,SSE,160,9.0,12.0,-999,-99.99,,,-99.99,,2013-01-13 14:03:00,
2013-01-13 09:13:00,43.0,-99.9,30.13,SSE,159,10.0,13.0,-999,-99.99,,,-99.99,,2013-01-13 14:13:00,
2013-01-13 09:23:00,43.0,-99.9,30.13,SSE,157,12.0,15.0,-999,-99.99,,,-99.99,,2013-01-13 14:23:00,
2013-01-13 09:33:00,43.0,-99.9,30.13,SSE,156,10.0,13.0,-999,-99.99,,,-99.99,,2013-01-13 14:33:00,
2013-01-13 09:43:00,43.0,-99.9,30.13,SSE,164,10.0,15.0,-999,-99.99,,,-99.99,,2013-01-13 14:43:00,
2013-01-13 09:53:00,44.0,-99.9,30.14,SSE,160,9.0,11.0,-999,-99.99,,,-99.99,,2013-01-13 14:53:00,
2013-01-13 10:03:00,44.0,-99.9,30.14,SSE,161,11.0,14.0,-999,-99.99,,,-99.99,,2013-01-13 15:03:00,
2013-01-13 10:13:00,44.0,-99.9,30.14,SSE,165,10.0,13.0,-999,-99.99,,,-99.99,,2013-01-13 15:13:00,
2013-01-13 10:23:00,44.0,-99.9,30.14,SSE,168,10.0,13.0,-999,-99.99,,,-99.99,,2013-01-13 15:23:00,
2013-01-13 10:33:00,44.0,-99.9,30.15,SSE,163,9.0,12.0,-999,-99.99,,,-99.99,,2013-01-13 15:33:00,
2013-01-13 10:43:00,45.0,-99.9,30.15,SSE,161,9.0,11.0,-999,-99.99,,,-99.99,,2013-01-13 15:43:00,
2013-01-13 10:53:00,45.0,-99.9,30.14,SSE,164,11.0,13.0,-999,-99.99,,,-99.99,,2013-01-13 15:53:00,
2013-01-13 11:04:00,45.0,-99.9,30.14,SSE,158,9.0,13.0,-999,-99.99,,,-99.99,,2013-01-13 16:04:00,
2013-01-13 11:13:00,46.0,-99.9,30.13,SSE,157,9.0,12.0,-999,-99.99,,,-99.99,,2013-01-13 16:13:00,
2013-01-13 11:23:00,46.0,-99.9,30.13,SSE,155,10.0,15.0,-999,-99.99,,,-99.99,,2013-01-13 16:23:00,
2013-01-13 11:33:00,46.0,-99.9,30.13,SSE,168,10.0,15.0,-999,-99.99,,,-99.99,,2013-01-13 16:33:00,
2013-01-13 11:43:00,46.0,-99.9,30.12,SSE,162,10.0,14.0,-999,-99.99,,,-99.99,,2013-01-13 16:43:00,
2013-01-13 11:53:00,46.0,-99.9,30.11,SSE,165,12.0,17.0,-999,-99.99,,,-99.99,,2013-01-13 16:53:00,
2013-01-13 12:03:00,46.0,-99.9,30.11,SSE,165,12.0,17.0,-999,-99.99,,,-99.99,,2013-01-13 17:03:00,
2013-01-13 12:13:00,46.0,-99.9,30.11,South,172,9.0,13.0,-999,-99.99,,,-99.99,,2013-01-13 17:13:00,
2013-01-13 12:22:00,46.0,-99.9,30.11,South,177,9.0,13.0,-999,-99.99,,,-99.99,,2013-01-13 17:22:00,
2013-01-13 12:33:00,46.0,-99.9,30.11,South,176,9.0,13.0,-999,-99.99,,,-99.99,,2013-01-13 17:33:00,
2013-01-13 12:43:00,46.0,-99.9,30.11,South,172,9.0,14.0,-999,-99.99,,,-99.99,,2013-01-13 17:43:00,
2013-01-13 12:53:00,47.0,-99.9,30.10,SSE,168,12.0,17.0,-999,-99.99,,,-99.99,,2013-01-13 17:53:00,
2013-01-13 13:03:00,47.0,-99.9,30.09,SSE,167,11.0,14.0,-999,-99.99,,,-99.99,,2013-01-13 18:03:00,
2013-01-13 13:12:00,47.0,-99.9,30.08,SSE,164,10.0,12.0,-999,-99.99,,,-99.99,,2013-01-13 18:12:00,
2013-01-13 13:23:00,47.0,-99.9,30.09,South,191,7.0,11.0,-999,-99.99,,,-99.99,,2013-01-13 18:23:00,
2013-01-13 13:33:00,47.0,-99.9,30.09,South,179,7.0,10.0,-999,-99.99,,,-99.99,,2013-01-13 18:33:00,
2013-01-13 13:43:00,47.0,-99.9,30.09,South,170,7.0,10.0,-999,-99.99,,,-99.99,,2013-01-13 18:43:00,
2013-01-13 13:53:00,47.0,-99.9,30.08,SSE,160,8.0,11.0,-999,-99.99,,,-99.99,,2013-01-13 18:53:00,
2013-01-13 14:03:00,47.0,-99.9,30.08,SSE,158,8.0,10.0,-999,-99.99,,,-99.99,,2013-01-13 19:03:00,
2013-01-13 14:12:00,47.0,-99.9,30.07,SSE,152,12.0,15.0,-999,-99.99,,,-99.99,,2013-01-13 19:12:00,
2013-01-13 14:23:00,47.0,-99.9,30.06,SSE,156,12.0,16.0,-999,-99.99,,,-99.99,,2013-01-13 19:23:00,
2013-01-13 14:33:00,48.0,-99.9,30.06,SSE,158,11.0,15.0,-999,-99.99,,,-99.99,,2013-01-13 19:33:00,
2013-01-13 14:43:00,47.0,-99.9,30.06,SSE,160,11.0,14.0,-999,-99.99,,,-99.99,,2013-01-13 19:43:00,
2013-01-13 14:53:00,47.0,-99.9,30.06,SSE,152,10.0,14.0,-999,-99.99,,,-99.99,,2013-01-13 19:53:00,
2013-01-13 15:03:00,48.0,-99.9,30.06,South,169,12.0,16.0,-999,-99.99,,,-99.99,,2013-01-13 20:03:00,
2013-01-13 15:12:00,48.0,-99.9,30.06,SSE,161,10.0,13.0,-999,-99.99,,,-99.99,,2013-01-13 20:12:00,
2013-01-13 15:23:00,48.0,-99.9,30.04,SSE,152,15.0,20.0,-999,-99.99,,,-99.99,,2013-01-13 20:23:00,
2013-01-13 15:33:00,48.0,-99.9,30.05,SSE,159,13.0,17.0,-999,-99.99,,,-99.99,,2013-01-13 20:33:00,
2013-01-13 15:43:00,48.0,-99.9,30.06,SSE,164,11.0,13.0,-999,-99.99,,,-99.99,,2013-01-13 20:43:00,
2013-01-13 15:53:00,48.0,-99.9,30.06,SSE,166,10.0,14.0,-999,-99.99,,,-99.99,,2013-01-13 20:53:00,
2013-01-13 16:03:00,47.0,-99.9,30.06,SSE,157,12.0,15.0,-999,-99.99,,,-99.99,,2013-01-13 21:03:00,
2013-01-13 16:13:00,47.0,-99.9,30.06,SSE,162,11.0,15.0,-999,-99.99,,,-99.99,,2013-01-13 21:13:00,
2013-01-13 16:23:00,47.0,-99.9,30.05,SSE,163,11.0,14.0,-999,-99.99,,,-99.99,,2013-01-13 21:23:00,
2013-01-13 16:33:00,47.0,-99.9,30.05,SSE,165,13.0,17.0,-999,-99.99,,,-99.99,,2013-01-13 21:33:00,
2013-01-13 16:43:00,48.0,-99.9,30.05,SSE,168,14.0,17.0,-999,-99.99,,,-99.99,,2013-01-13 21:43:00,
2013-01-13 16:53:00,48.0,-99.9,30.05,SSE,167,13.0,16.0,-999,-99.99,,,-99.99,,2013-01-13 21:53:00,
2013-01-13 17:03:00,48.0,-99.9,30.05,SSE,165,13.0,18.0,-999,-99.99,,,-99.99,,2013-01-13 22:03:00,
2013-01-13 17:13:00,48.0,-99.9,30.05,South,172,12.0,16.0,-999,-99.99,,,-99.99,,2013-01-13 22:13:00,
2013-01-13 17:23:00,48.0,-99.9,30.05,South,172,11.0,17.0,-999,-99.99,,,-99.99,,2013-01-13 22:23:00,
2013-01-13 17:33:00,48.0,-99.9,30.06,South,180,12.0,17.0,-999,-99.99,,,-99.99,,2013-01-13 22:33:00,
2013-01-13 17:43:00,48.0,-99.9,30.06,South,182,10.0,14.0,-999,-99.99,,,-99.99,,2013-01-13 22:43:00,
2013-01-13 17:53:00,48.0,-99.9,30.05,South,178,11.0,14.0,-999,-99.99,,,-99.99,,2013-01-13 22:53:00,
2013-01-13 18:03:00,49.0,-99.9,30.05,South,177,10.0,13.0,-999,-99.99,,,-99.99,,2013-01-13 23:03:00,
2013-01-13 18:12:00,49.0,-99.9,30.04,South,173,10.0,13.0,-999,-99.99,,,-99.99,,2013-01-13 23:12:00,
2013-01-13 18:23:00,49.0,-99.9,30.04,South,176,10.0,14.0,-999,-99.99,,,-99.99,,2013-01-13 23:23:00,
2013-01-13 18:33:00,49.0,-99.9,30.04,South,175,10.0,12.0,-999,-99.99,,,-99.99,,2013-01-13 23:33:00,
2013-01-13 18:43:00,49.0,-99.9,30.03,South,176,11.0,15.0,-999,-99.99,,,-99.99,,2013-01-13 23:43:00,
2013-01-13 18:53:00,50.0,-99.9,30.03,South,181,11.0,15.0,-999,-99.99,,,-99.99,,2013-01-13 23:53:00,
2013-01-13 19:03:00,50.0,-99.9,30.02,South,174,12.0,16.0,-999,-99.99,,,-99.99,,2013-01-14 00:03:00,
2013-01-13 19:13:00,49.0,-99.9,30.03,South,180,11.0,18.0,-999,-99.99,,,-99.99,,2013-01-14 00:13:00,
2013-01-13 19:23:00,50.0,-99.9,30.03,South,191,9.0,12.0,-999,-99.99,,,-99.99,,2013-01-14 00:23:00,
2013-01-13 19:33:00,50.0,-99.9,30.03,South,191,9.0,12.0,-999,-99.99,,,-99.99,,2013-01-14 00:33:00,
2013-01-13 19:43:00,50.0,-99.9,30.03,South,191,9.0,12.0,-999,-99.99,,,-99.99,,2013-01-14 00:43:00,
2013-01-13 19:53:00,50.0,-99.9,30.03,South,191,9.0,12.0,-999,-99.99,,,-99.99,,2013-01-14 00:53:00,